Terminal Aerodrome Forecast
Issued by NWS

Home | Current Version | Previous Version | Text Only | Print | Product List | Glossary On
Versions: 1 2 3 4 5 6 7 8 9 10 11 12 13 14 15 16 17 18 19 20 21 22 23 24 25 26 27 28 29 30 31 32 33 34
000
FTUS41 KRNK 220531
TAFBCB
TAF
KBCB 220531Z 2206/2306 11003KT 6SM -DZ OVC018
     FM220800 10005KT 5SM -DZ BR OVC007
     FM221000 09005KT 5SM -FZRA BR SCT004 OVC007
     FM221500 07003KT 6SM BR SCT004 OVC015
     FM230200 09003KT 1SM BR OVC004=

USA.gov is the U.S. government's official web portal to all federal, state and local government web resources and services.